createdAt,value
2018-06-28T00:02:20.916Z,18.50
2018-06-28T00:05:19.109Z,18.40
2018-06-28T00:08:17.051Z,18.40
2018-06-28T00:11:14.939Z,18.50
2018-06-28T00:14:13.020Z,18.50
2018-06-28T00:17:10.486Z,18.40
2018-06-28T00:20:09.462Z,18.40
2018-06-28T00:23:06.596Z,18.30
2018-06-28T00:26:03.941Z,18.30
2018-06-28T00:29:01.278Z,18.40
2018-06-28T00:31:58.778Z,18.30
2018-06-28T00:34:56.098Z,18.30
2018-06-28T00:40:43.739Z,18.30
2018-06-28T00:43:41.071Z,18.40
2018-06-28T00:46:38.423Z,18.40
2018-06-28T00:49:36.115Z,18.50
2018-06-28T00:52:33.579Z,18.50
2018-06-28T00:55:31.639Z,18.40
2018-06-28T00:58:29.198Z,18.30
2018-06-28T01:01:26.520Z,18.20
2018-06-28T01:04:24.622Z,18.30
2018-06-28T01:07:23.670Z,18.20
2018-06-28T01:10:22.135Z,18.10
2018-06-28T01:13:19.799Z,18.20
2018-06-28T01:16:17.127Z,18.20
2018-06-28T01:19:16.249Z,18.20
2018-06-28T01:22:13.806Z,18.20
2018-06-28T01:25:11.155Z,18.10
2018-06-28T01:28:08.337Z,18.10
2018-06-28T01:31:05.628Z,18.10
2018-06-28T01:34:02.933Z,18.00
2018-06-28T01:37:00.946Z,18.00
2018-06-28T01:39:58.397Z,18.10
2018-06-28T01:43:07.721Z,18.10
2018-06-28T01:46:05.231Z,18.20
2018-06-28T01:49:03.331Z,18.30
2018-06-28T01:52:01.243Z,18.30
2018-06-28T01:57:49.801Z,18.20
2018-06-28T02:00:48.988Z,18.20
2018-06-28T02:03:46.449Z,18.10
2018-06-28T02:06:43.870Z,18.00
2018-06-28T02:09:41.127Z,18.00
2018-06-28T02:12:38.755Z,18.00
2018-06-28T02:15:36.149Z,18.00
2018-06-28T02:18:34.396Z,18.00
2018-06-28T02:21:31.547Z,17.90
2018-06-28T02:24:28.988Z,17.90
2018-06-28T02:27:26.115Z,17.90
2018-06-28T02:30:23.384Z,17.90
2018-06-28T02:33:21.486Z,17.90
2018-06-28T02:36:19.092Z,17.90
2018-06-28T02:39:17.203Z,17.90
2018-06-28T02:42:15.310Z,17.90
2018-06-28T02:45:28.427Z,17.90
2018-06-28T02:48:25.719Z,17.90
2018-06-28T02:51:23.139Z,17.90
2018-06-28T02:54:20.423Z,18.00
2018-06-28T02:57:17.896Z,18.00
2018-06-28T03:00:15.429Z,18.00
2018-06-28T03:03:13.430Z,18.00
2018-06-28T03:06:11.520Z,18.10
2018-06-28T03:09:08.820Z,18.10
2018-06-28T03:12:06.093Z,18.10
2018-06-28T03:15:04.220Z,18.10
2018-06-28T03:18:01.500Z,18.20
2018-06-28T03:20:58.683Z,18.30
2018-06-28T03:23:56.047Z,18.20
2018-06-28T03:26:53.507Z,18.30
2018-06-28T03:29:51.811Z,18.50
2018-06-28T03:32:49.908Z,18.50
2018-06-28T03:35:47.962Z,18.60
2018-06-28T03:38:46.040Z,18.60
2018-06-28T03:41:43.296Z,18.70
2018-06-28T03:44:41.498Z,18.70
2018-06-28T03:47:39.656Z,18.80
2018-06-28T03:50:36.939Z,18.90
2018-06-28T03:53:34.259Z,18.90
2018-06-28T03:56:32.476Z,18.90
2018-06-28T03:59:30.514Z,19.10
2018-06-28T04:02:27.952Z,19.10
2018-06-28T04:05:25.268Z,19.20
2018-06-28T04:08:22.803Z,19.30
2018-06-28T04:11:20.142Z,19.40
2018-06-28T04:14:17.743Z,19.70
2018-06-28T04:17:15.482Z,19.80
2018-06-28T04:20:13.012Z,19.90
2018-06-28T04:23:10.443Z,19.90
2018-06-28T04:26:07.787Z,20.20
2018-06-28T04:29:05.097Z,20.50
2018-06-28T04:32:02.566Z,20.60
2018-06-28T04:35:00.274Z,20.70
2018-06-28T04:37:58.397Z,20.70
2018-06-28T04:40:56.049Z,20.70
2018-06-28T04:43:53.415Z,20.90
2018-06-28T04:46:50.648Z,21.00
2018-06-28T04:49:47.903Z,21.20
2018-06-28T04:52:45.764Z,21.30
2018-06-28T04:55:43.766Z,21.30
2018-06-28T04:58:41.126Z,21.40
2018-06-28T05:01:38.415Z,21.40
2018-06-28T05:04:35.926Z,21.50
2018-06-28T05:07:34.102Z,21.50
2018-06-28T05:10:32.278Z,21.60
2018-06-28T05:13:29.655Z,21.70
2018-06-28T05:16:26.905Z,21.70
2018-06-28T05:19:24.238Z,21.80
2018-06-28T05:22:22.428Z,22.00
2018-06-28T05:25:19.738Z,22.20
2018-06-28T05:28:16.962Z,22.30
2018-06-28T05:31:14.439Z,22.30
2018-06-28T05:34:11.652Z,22.30
2018-06-28T05:37:09.762Z,22.40
2018-06-28T05:40:06.999Z,22.60
2018-06-28T05:43:04.593Z,22.60
2018-06-28T05:46:01.795Z,22.60
2018-06-28T05:48:59.223Z,22.80
2018-06-28T05:51:56.522Z,22.80
2018-06-28T05:54:54.567Z,22.90
2018-06-28T05:57:51.729Z,23.00
2018-06-28T06:00:48.947Z,23.10
2018-06-28T06:06:36.434Z,23.40
2018-06-28T06:09:34.479Z,23.40
2018-06-28T06:12:31.871Z,23.60
2018-06-28T06:15:29.920Z,23.70
2018-06-28T06:18:28.078Z,23.80
2018-06-28T06:21:25.947Z,23.90
2018-06-28T06:24:23.376Z,23.90
2018-06-28T06:27:20.682Z,24.00
2018-06-28T06:30:20.366Z,24.10
2018-06-28T06:33:18.527Z,24.20
2018-06-28T06:36:16.076Z,24.40
2018-06-28T06:39:13.365Z,24.60
2018-06-28T06:42:11.356Z,24.70
2018-06-28T06:45:08.464Z,24.80
2018-06-28T06:48:06.583Z,25.00
2018-06-28T06:51:03.865Z,25.10
2018-06-28T06:54:01.855Z,25.30
2018-06-28T06:56:59.133Z,25.50
2018-06-28T06:59:56.328Z,25.80
2018-06-28T07:02:53.627Z,26.20
2018-06-28T07:05:50.944Z,27.40
2018-06-28T07:08:49.107Z,28.70
2018-06-28T07:11:47.040Z,30.20
2018-06-28T07:14:44.280Z,31.10
2018-06-28T07:17:42.283Z,30.90
2018-06-28T07:22:54.653Z,31.90
2018-06-28T07:25:52.385Z,31.20
2018-06-28T07:28:50.262Z,31.20
2018-06-28T07:31:47.901Z,31.00
2018-06-28T07:34:45.835Z,30.50
2018-06-28T07:37:43.514Z,31.30
2018-06-28T07:40:41.154Z,32.60
2018-06-28T07:43:38.747Z,33.10
2018-06-28T07:46:36.467Z,33.20
2018-06-28T07:49:34.300Z,32.90
2018-06-28T07:52:32.084Z,33.20
2018-06-28T07:55:29.773Z,33.40
2018-06-28T07:58:27.559Z,33.60
2018-06-28T08:01:25.233Z,33.60
2018-06-28T08:04:23.237Z,33.60
2018-06-28T08:07:20.947Z,33.40
2018-06-28T08:10:18.872Z,34.40
2018-06-28T08:13:16.656Z,35.10
2018-06-28T08:16:14.312Z,35.00
2018-06-28T08:19:12.009Z,34.10
2018-06-28T08:22:09.927Z,34.20
2018-06-28T08:25:07.877Z,34.90
2018-06-28T08:28:05.831Z,34.80
2018-06-28T08:31:03.629Z,34.90
2018-06-28T08:34:01.348Z,34.30
2018-06-28T08:37:00.292Z,34.00
2018-06-28T08:39:58.152Z,33.60
2018-06-28T08:42:56.224Z,33.40
2018-06-28T08:45:53.715Z,33.50
2018-06-28T08:48:51.550Z,34.30
2018-06-28T08:51:49.528Z,34.60
2018-06-28T08:54:47.376Z,34.40
2018-06-28T08:57:45.074Z,34.90
2018-06-28T09:00:42.671Z,35.20
2018-06-28T09:03:40.396Z,34.90
2018-06-28T09:06:38.348Z,34.60
2018-06-28T09:09:36.002Z,34.60
2018-06-28T09:12:33.843Z,33.70
2018-06-28T09:15:31.377Z,32.80
2018-06-28T09:18:29.152Z,33.20
2018-06-28T09:21:26.981Z,34.20
2018-06-28T09:24:24.522Z,33.50
2018-06-28T09:27:22.266Z,33.70
2018-06-28T09:30:21.059Z,33.60
2018-06-28T09:33:18.716Z,33.20
2018-06-28T09:36:17.433Z,32.90
2018-06-28T09:39:15.292Z,33.40
2018-06-28T09:42:13.125Z,33.70
2018-06-28T09:45:11.040Z,34.30
2018-06-28T09:50:58.781Z,35.60
2018-06-28T09:53:57.022Z,35.20
2018-06-28T09:56:54.809Z,34.70
2018-06-28T09:59:52.479Z,34.70
2018-06-28T10:02:50.454Z,35.60
2018-06-28T10:05:48.261Z,35.50
2018-06-28T10:08:46.175Z,35.50
2018-06-28T10:11:44.198Z,35.40
2018-06-28T10:14:41.833Z,35.40
2018-06-28T10:17:39.605Z,35.20
2018-06-28T10:20:37.718Z,35.20
2018-06-28T10:23:35.432Z,35.50
2018-06-28T10:26:33.378Z,35.30
2018-06-28T10:29:31.099Z,35.20
2018-06-28T10:32:29.079Z,34.70
2018-06-28T10:35:26.747Z,35.30
2018-06-28T10:38:24.709Z,35.20
2018-06-28T10:41:22.256Z,34.80
2018-06-28T10:44:19.941Z,35.20
2018-06-28T10:47:17.786Z,36.00
2018-06-28T10:50:15.481Z,35.50
2018-06-28T10:53:13.487Z,35.20
2018-06-28T10:56:11.144Z,35.00
2018-06-28T10:59:08.736Z,35.50
2018-06-28T11:02:06.468Z,35.50
2018-06-28T11:05:04.369Z,35.80
2018-06-28T11:08:02.159Z,36.20
2018-06-28T11:10:59.715Z,35.90
2018-06-28T11:13:57.519Z,36.10
2018-06-28T11:16:55.131Z,36.00
2018-06-28T11:19:52.987Z,36.20
2018-06-28T11:22:50.602Z,36.00
2018-06-28T11:25:48.189Z,36.10
2018-06-28T11:28:46.198Z,36.10
2018-06-28T11:31:44.224Z,35.80
2018-06-28T11:34:41.920Z,35.60
2018-06-28T11:37:39.463Z,35.90
2018-06-28T11:40:37.172Z,36.20
2018-06-28T11:43:35.138Z,35.80
2018-06-28T11:46:32.851Z,35.50
2018-06-28T11:49:30.595Z,35.10
2018-06-28T11:52:28.222Z,35.30
2018-06-28T11:55:25.436Z,35.50
2018-06-28T11:58:23.159Z,35.40
2018-06-28T12:01:22.151Z,35.60
2018-06-28T12:04:19.889Z,35.50
2018-06-28T12:07:17.436Z,35.10
2018-06-28T12:10:16.031Z,35.80
2018-06-28T12:13:13.804Z,35.60
2018-06-28T12:16:11.606Z,35.80
2018-06-28T12:19:09.468Z,35.80
2018-06-28T12:22:07.324Z,36.20
2018-06-28T12:25:06.416Z,35.80
2018-06-28T12:28:04.130Z,35.60
2018-06-28T12:31:01.844Z,35.50
2018-06-28T12:33:59.879Z,36.10
2018-06-28T12:36:57.617Z,36.10
2018-06-28T12:39:55.322Z,35.60
2018-06-28T12:42:53.082Z,35.30
2018-06-28T12:45:59.824Z,35.60
2018-06-28T12:48:57.823Z,35.70
2018-06-28T12:52:07.582Z,35.50
2018-06-28T12:55:05.474Z,35.10
2018-06-28T12:58:04.235Z,34.70
2018-06-28T13:20:22.236Z,34.20
2018-06-28T13:23:20.074Z,34.00
2018-06-28T13:26:19.147Z,33.50
2018-06-28T13:29:16.752Z,33.10
2018-06-28T13:32:14.722Z,33.10
2018-06-28T13:35:12.362Z,33.40
2018-06-28T13:38:10.155Z,33.20
2018-06-28T13:41:07.826Z,33.20
2018-06-28T13:44:06.446Z,33.00
2018-06-28T13:47:04.335Z,32.40
2018-06-28T13:50:01.880Z,31.50
2018-06-28T13:52:59.893Z,31.30
2018-06-28T13:55:57.820Z,31.30
2018-06-28T13:58:55.529Z,31.50
2018-06-28T14:01:53.147Z,31.90
2018-06-28T14:04:51.153Z,32.50
2018-06-28T14:07:48.957Z,32.70
2018-06-28T14:10:46.604Z,32.60
2018-06-28T14:13:44.757Z,32.10
2018-06-28T14:16:42.532Z,31.80
2018-06-28T14:19:40.523Z,31.90
2018-06-28T14:22:38.310Z,32.50
2018-06-28T14:25:35.932Z,32.40
2018-06-28T14:28:33.800Z,32.00
2018-06-28T14:31:31.708Z,32.60
2018-06-28T14:34:30.346Z,32.10
2018-06-28T14:37:29.138Z,32.40
2018-06-28T14:40:28.073Z,32.60
2018-06-28T14:43:26.349Z,32.10
2018-06-28T14:46:23.955Z,31.20
2018-06-28T14:49:22.946Z,30.60
2018-06-28T14:52:20.900Z,30.30
2018-06-28T14:55:19.536Z,30.40
2018-06-28T14:58:17.249Z,30.50
2018-06-28T15:04:04.796Z,30.30
2018-06-28T15:07:02.560Z,30.00
2018-06-28T15:10:00.170Z,30.40
2018-06-28T15:12:58.281Z,30.50
2018-06-28T15:15:55.947Z,30.30
2018-06-28T15:18:53.711Z,29.90
2018-06-28T15:21:51.549Z,29.60
2018-06-28T15:24:49.338Z,29.60
2018-06-28T15:30:37.050Z,29.40
2018-06-28T15:33:34.955Z,28.80
2018-06-28T15:36:32.713Z,28.40
2018-06-28T15:39:30.546Z,28.10
2018-06-28T15:42:28.345Z,27.90
2018-06-28T15:45:26.303Z,27.80
2018-06-28T15:48:24.085Z,27.70
2018-06-28T15:51:22.859Z,27.60
2018-06-28T15:54:20.763Z,27.50
2018-06-28T15:57:18.460Z,27.20
2018-06-28T16:00:16.130Z,27.00
2018-06-28T16:03:13.951Z,27.00
2018-06-28T16:06:11.596Z,27.10
2018-06-28T16:09:09.514Z,27.10
2018-06-28T16:12:07.071Z,27.00
2018-06-28T16:15:05.340Z,27.00
2018-06-28T16:18:04.802Z,27.00
2018-06-28T16:21:02.018Z,26.90
2018-06-28T16:24:00.064Z,27.10
2018-06-28T16:26:57.866Z,27.00
2018-06-28T16:29:55.278Z,26.90
2018-06-28T16:32:54.304Z,26.80
2018-06-28T16:35:52.091Z,26.70
2018-06-28T16:38:49.789Z,26.60
2018-06-28T16:41:47.605Z,26.70
2018-06-28T16:44:45.455Z,26.90
2018-06-28T16:47:43.162Z,27.20
2018-06-28T16:50:41.017Z,27.30
2018-06-28T16:53:39.062Z,27.50
2018-06-28T16:56:36.958Z,27.10
2018-06-28T16:59:34.897Z,27.10
2018-06-28T17:02:32.468Z,26.80
2018-06-28T17:05:30.097Z,26.70
2018-06-28T17:08:27.971Z,26.90
2018-06-28T17:11:25.598Z,26.90
2018-06-28T17:14:23.403Z,26.90
2018-06-28T17:17:21.356Z,26.90
2018-06-28T17:20:19.369Z,26.80
2018-06-28T17:23:18.447Z,26.80
2018-06-28T17:26:16.031Z,26.70
2018-06-28T17:29:13.947Z,26.60
2018-06-28T17:32:11.674Z,26.50
2018-06-28T17:35:09.327Z,26.30
2018-06-28T17:38:07.156Z,26.20
2018-06-28T17:41:04.778Z,26.00
2018-06-28T17:44:02.604Z,26.00
2018-06-28T17:47:00.447Z,25.80
2018-06-28T17:49:58.328Z,25.90
2018-06-28T17:52:57.071Z,25.90
2018-06-28T17:55:54.503Z,25.80
2018-06-28T17:58:52.365Z,25.80
2018-06-28T18:01:50.379Z,25.80
2018-06-28T18:04:48.140Z,25.80
2018-06-28T18:07:47.540Z,25.80
2018-06-28T18:10:45.766Z,25.70
2018-06-28T18:13:43.473Z,25.60
2018-06-28T18:16:41.299Z,25.70
2018-06-28T18:19:39.015Z,25.70
2018-06-28T18:22:40.604Z,25.50
2018-06-28T18:25:38.355Z,25.40
2018-06-28T18:28:35.969Z,25.40
2018-06-28T18:31:34.210Z,25.30
2018-06-28T18:34:31.907Z,25.10
2018-06-28T18:40:19.129Z,24.90
2018-06-28T18:43:16.717Z,24.90
2018-06-28T18:46:15.591Z,24.90
2018-06-28T18:49:13.405Z,24.90
2018-06-28T18:52:11.175Z,24.90
2018-06-28T18:55:08.643Z,24.80
2018-06-28T18:58:06.430Z,24.80
2018-06-28T19:01:04.050Z,24.70
2018-06-28T19:04:01.783Z,24.80
2018-06-28T19:06:59.555Z,24.70
2018-06-28T19:10:03.363Z,24.60
2018-06-28T19:13:01.195Z,24.60
2018-06-28T19:32:41.385Z,24.60
2018-06-28T19:38:28.446Z,24.70
2018-06-28T19:41:32.172Z,24.80
2018-06-28T19:44:29.549Z,24.30
2018-06-28T19:47:27.384Z,22.90
2018-06-28T19:50:31.056Z,22.10
2018-06-28T19:53:28.338Z,21.70
2018-06-28T19:56:25.642Z,21.20
2018-06-28T19:59:23.246Z,21.00
2018-06-28T20:02:26.953Z,20.80
2018-06-28T20:05:24.336Z,20.50
2018-06-28T20:08:21.627Z,20.40
2018-06-28T20:11:19.679Z,20.00
2018-06-28T20:14:23.599Z,19.70
2018-06-28T20:17:27.289Z,19.50
2018-06-28T20:20:25.767Z,19.30
2018-06-28T20:23:23.737Z,19.20
2018-06-28T20:26:27.098Z,19.30
2018-06-28T20:29:31.123Z,19.20
2018-06-28T20:32:35.269Z,19.00
2018-06-28T20:35:32.874Z,18.40
2018-06-28T20:38:30.572Z,18.10
2018-06-28T20:41:28.661Z,18.10
2018-06-28T20:44:26.610Z,18.30
2018-06-28T20:47:24.471Z,18.40
2018-06-28T20:50:23.530Z,18.40
2018-06-28T20:53:21.789Z,18.30
2018-06-28T20:56:20.150Z,17.80
2018-06-28T20:59:18.284Z,17.70
2018-06-28T21:02:16.380Z,17.70
2018-06-28T21:05:14.513Z,17.60
2018-06-28T21:08:11.644Z,17.20
2018-06-28T21:11:10.690Z,17.20
2018-06-28T21:14:08.883Z,16.60
2018-06-28T21:17:06.973Z,16.40
2018-06-28T21:20:04.155Z,15.90
2018-06-28T21:23:02.210Z,15.70
2018-06-28T21:26:00.257Z,15.60
2018-06-28T21:31:48.407Z,15.20
2018-06-28T21:34:46.563Z,15.10
2018-06-28T21:37:44.404Z,15.00
2018-06-28T21:40:42.366Z,15.00
2018-06-28T21:43:40.289Z,15.00
2018-06-28T21:46:38.411Z,15.10
2018-06-28T21:49:36.113Z,15.10
2018-06-28T21:52:34.344Z,15.20
2018-06-28T21:55:32.419Z,15.30
2018-06-28T21:58:30.443Z,15.30
2018-06-28T22:01:28.385Z,15.50
2018-06-28T22:04:25.873Z,15.50
2018-06-28T22:07:23.151Z,15.50
2018-06-28T22:10:22.044Z,15.40
2018-06-28T22:13:19.300Z,15.50
2018-06-28T22:19:07.291Z,15.60
2018-06-28T22:22:05.512Z,15.60
2018-06-28T22:25:03.654Z,15.40
2018-06-28T22:28:01.612Z,15.40
2018-06-28T22:30:59.829Z,15.30
2018-06-28T22:33:57.629Z,15.40
2018-06-28T22:36:55.571Z,15.40
2018-06-28T22:39:53.710Z,15.40
2018-06-28T22:42:51.678Z,15.30
2018-06-28T22:45:49.471Z,15.30
2018-06-28T22:48:48.348Z,15.40
2018-06-28T22:51:46.220Z,15.30
2018-06-28T22:54:44.234Z,15.30
2018-06-28T22:57:42.027Z,15.30
2018-06-28T23:00:46.968Z,15.30
2018-06-28T23:03:44.735Z,15.20
2018-06-28T23:06:42.815Z,15.20
2018-06-28T23:09:40.962Z,15.20
2018-06-28T23:12:38.771Z,15.10
2018-06-28T23:15:36.748Z,15.10
2018-06-28T23:18:34.631Z,15.10
2018-06-28T23:21:32.687Z,15.20
2018-06-28T23:27:21.236Z,15.10
2018-06-28T23:30:19.138Z,15.00
2018-06-28T23:33:16.428Z,15.00
2018-06-28T23:36:14.515Z,15.00
2018-06-28T23:39:14.507Z,15.10
2018-06-28T23:42:13.538Z,14.90
2018-06-28T23:45:11.548Z,14.90
2018-06-28T23:48:09.445Z,15.00
2018-06-28T23:51:07.332Z,14.90
2018-06-28T23:54:06.296Z,14.80
2018-06-28T23:59:54.163Z,14.50
